Time;durP1;ratioP1;P1;durP2;ratioP2;P2;SDS_P1;SDS_P2;PMS_P1;PMS_P2;Temp;Humidity;BMP_temperature;BMP_pressure;BME280_temperature;BME280_humidity;BME280_pressure;Samples;Min_cycle;Max_cycle;Signal;HPM_P1;HPM_P2
2020/12/27 02:23:14;;;;;;;1.40;0.80;;;4.40;71.50;;;;;;4993831;28;20499;-82
2020/12/27 02:25:47;;;;;;;1.93;1.10;;;4.40;71.40;;;;;;4979816;28;20435;-84
2020/12/27 02:28:37;;;;;;;1.40;1.00;;;4.40;71.70;;;;;;4979022;28;20405;-84
2020/12/27 02:31:07;;;;;;;1.50;0.90;;;4.40;71.90;;;;;;4997845;28;20423;-82
2020/12/27 02:33:43;;;;;;;1.67;0.97;;;4.30;71.60;;;;;;4998163;28;20407;-82
2020/12/27 02:38:39;;;;;;;1.40;0.93;;;4.40;71.30;;;;;;5002414;28;20455;-83
2020/12/27 02:41:15;;;;;;;1.70;0.70;;;4.40;70.90;;;;;;4984839;28;20454;-82
2020/12/27 02:43:56;;;;;;;1.40;0.80;;;4.40;70.90;;;;;;4983549;28;20450;-80
2020/12/27 02:46:27;;;;;;;1.77;0.80;;;4.40;70.50;;;;;;4966151;28;20818;-82
2020/12/27 02:49:11;;;;;;;6.33;1.70;;;4.40;70.50;;;;;;5001182;28;20178;-81
2020/12/27 02:51:37;;;;;;;1.40;0.83;;;4.40;70.40;;;;;;4982873;28;20459;-82
2020/12/27 02:54:04;;;;;;;1.50;0.90;;;4.40;70.40;;;;;;4983049;28;20411;-81
2020/12/27 02:56:32;;;;;;;1.40;0.90;;;4.50;70.20;;;;;;4983107;28;20427;-81
2020/12/27 02:59:00;;;;;;;2.17;1.10;;;4.50;70.00;;;;;;4984036;28;20794;-80
2020/12/27 03:01:26;;;;;;;1.40;0.70;;;4.50;70.00;;;;;;5009286;28;20179;-81
2020/12/27 03:04:13;;;;;;;3.13;0.97;;;4.40;70.50;;;;;;4999420;28;20417;-80
2020/12/27 03:06:41;;;;;;;2.13;1.00;;;4.40;69.50;;;;;;4983098;28;20792;-81
2020/12/27 03:09:19;;;;;;;1.03;0.77;;;4.50;69.40;;;;;;4982854;28;20476;-80
2020/12/27 03:12:02;;;;;;;1.50;0.90;;;4.50;69.30;;;;;;4982876;28;20407;-81
2020/12/27 03:14:28;;;;;;;2.50;0.83;;;4.50;69.20;;;;;;4964697;28;20411;-80
2020/12/27 03:17:13;;;;;;;2.43;1.00;;;4.50;69.10;;;;;;4983523;28;20473;-82
2020/12/27 03:19:49;;;;;;;1.20;0.77;;;4.50;69.10;;;;;;5000096;28;21003;-81
2020/12/27 03:22:25;;;;;;;2.40;0.87;;;4.50;68.90;;;;;;5000778;28;20399;-82
2020/12/27 03:25:12;;;;;;;1.50;0.80;;;4.50;68.80;;;;;;4982684;28;20414;-80
2020/12/27 03:27:39;;;;;;;1.03;0.73;;;4.50;68.90;;;;;;4983577;28;20494;-82
2020/12/27 03:30:06;;;;;;;1.73;0.97;;;4.60;69.10;;;;;;4985352;28;20829;-81
2020/12/27 03:32:35;;;;;;;1.23;0.83;;;4.60;68.90;;;;;;4982865;28;20202;-80
2020/12/27 03:35:02;;;;;;;1.47;0.97;;;4.60;68.90;;;;;;5004022;28;20410;-83
2020/12/27 03:37:28;;;;;;;3.13;0.90;;;4.60;68.90;;;;;;4985535;28;20451;-81
2020/12/27 03:40:14;;;;;;;1.00;0.60;;;4.60;68.80;;;;;;4973208;28;20446;-81
2020/12/27 03:42:52;;;;;;;2.27;1.47;;;4.60;68.90;;;;;;4986006;28;20442;-80
2020/12/27 03:45:19;;;;;;;1.47;0.90;;;4.60;69.00;;;;;;4988494;28;20403;-82
2020/12/27 03:48:04;;;;;;;1.10;0.70;;;4.60;69.00;;;;;;4971369;28;20489;-81
2020/12/27 03:50:45;;;;;;;1.30;0.60;;;4.60;69.00;;;;;;4984358;28;20406;-80
2020/12/27 03:53:11;;;;;;;1.00;0.70;;;4.60;69.10;;;;;;5001883;28;20410;-80
2020/12/27 03:55:52;;;;;;;2.67;0.63;;;4.60;69.30;;;;;;4984345;28;20218;-80
2020/12/27 03:58:43;;;;;;;1.73;0.90;;;4.60;69.20;;;;;;5002268;28;20657;-79
2020/12/27 04:01:18;;;;;;;1.00;0.60;;;4.60;69.20;;;;;;4989365;28;20652;-80
2020/12/27 04:03:44;;;;;;;2.00;0.80;;;4.60;69.00;;;;;;4976776;28;20419;-79
2020/12/27 04:06:18;;;;;;;2.10;0.80;;;4.60;69.20;;;;;;4993247;28;20186;-80
2020/12/27 04:08:47;;;;;;;1.63;0.90;;;4.60;69.20;;;;;;4986358;28;20406;-81
2020/12/27 04:11:13;;;;;;;1.80;0.67;;;4.50;69.10;;;;;;4984618;28;20839;-81
2020/12/27 04:13:41;;;;;;;1.60;0.70;;;4.50;69.20;;;;;;4970956;28;20426;-79
2020/12/27 04:16:12;;;;;;;1.30;0.70;;;4.50;69.40;;;;;;4984986;28;20441;-80
2020/12/27 04:18:38;;;;;;;1.93;0.70;;;4.50;69.30;;;;;;4983434;28;20503;-82
2020/12/27 04:21:30;;;;;;;1.50;0.70;;;4.50;69.50;;;;;;4957491;28;20410;-82
2020/12/27 04:24:07;;;;;;;1.00;0.60;;;4.50;69.50;;;;;;4983467;28;20553;-81
2020/12/27 04:26:33;;;;;;;1.97;0.70;;;4.50;69.20;;;;;;4983987;28;20923;-81
2020/12/27 04:29:03;;;;;;;2.13;0.70;;;4.40;69.30;;;;;;4981891;28;20395;-80
2020/12/27 04:31:30;;;;;;;0.87;0.47;;;4.40;69.40;;;;;;4983184;28;20408;-82
2020/12/27 04:34:12;;;;;;;1.67;0.60;;;4.40;69.30;;;;;;4982621;28;20948;-80
2020/12/27 04:36:41;;;;;;;1.10;0.60;;;4.40;68.90;;;;;;4983168;28;20446;-80
2020/12/27 04:39:11;;;;;;;1.03;0.60;;;4.40;68.90;;;;;;4985797;28;20403;-81
2020/12/27 04:41:44;;;;;;;1.07;0.60;;;4.40;68.90;;;;;;4981561;28;20499;-79
2020/12/27 04:44:18;;;;;;;1.03;0.63;;;4.40;69.90;;;;;;4972659;28;20406;-82
2020/12/27 04:46:47;;;;;;;0.90;0.63;;;4.40;69.10;;;;;;4970991;28;20446;-81
2020/12/27 04:49:29;;;;;;;3.07;0.83;;;4.40;69.20;;;;;;4982650;28;20932;-83
2020/12/27 04:52:03;;;;;;;1.93;0.60;;;4.40;69.20;;;;;;4982455;28;20423;-80
2020/12/27 04:54:50;;;;;;;1.50;0.50;;;4.30;69.40;;;;;;4999618;28;20426;-81
2020/12/27 04:57:40;;;;;;;0.90;0.60;;;4.30;69.50;;;;;;5000018;28;20452;-81
2020/12/27 05:00:06;;;;;;;0.90;0.50;;;4.30;69.50;;;;;;4991556;28;20463;-78
2020/12/27 05:02:51;;;;;;;0.90;0.60;;;4.40;69.60;;;;;;5017829;28;20430;-80
2020/12/27 05:05:16;;;;;;;1.37;0.77;;;4.40;69.50;;;;;;5000031;28;20426;-78
2020/12/27 05:07:46;;;;;;;0.93;0.57;;;4.40;69.50;;;;;;5000482;28;20246;-79
2020/12/27 05:10:28;;;;;;;1.00;0.60;;;4.40;69.50;;;;;;4993197;28;20395;-79
2020/12/27 05:13:01;;;;;;;1.37;0.90;;;4.40;69.50;;;;;;4993110;28;20411;-79
2020/12/27 05:15:27;;;;;;;1.30;0.47;;;4.40;69.40;;;;;;5009834;28;20410;-80
2020/12/27 05:17:57;;;;;;;1.10;0.70;;;4.50;69.50;;;;;;4990245;28;20423;-81
2020/12/27 05:20:27;;;;;;;0.93;0.53;;;4.50;69.10;;;;;;4989909;28;20455;-79
2020/12/27 05:23:04;;;;;;;0.80;0.50;;;4.50;68.90;;;;;;4982764;28;20454;-81
2020/12/27 05:26:04;;;;;;;1.47;0.80;;;4.60;68.90;;;;;;4981196;28;20415;-81
2020/12/27 05:28:43;;;;;;;1.60;0.60;;;4.60;68.70;;;;;;4980896;28;20507;-80
2020/12/27 05:31:35;;;;;;;0.90;0.50;;;4.60;68.70;;;;;;4981965;28;20423;-80
2020/12/27 05:34:19;;;;;;;1.30;0.60;;;4.60;68.50;;;;;;4999325;28;20468;-81
2020/12/27 05:37:06;;;;;;;1.90;0.60;;;4.60;68.70;;;;;;4989531;28;20509;-81
2020/12/27 05:39:50;;;;;;;0.90;0.50;;;4.60;68.70;;;;;;5006837;28;20545;-82
2020/12/27 05:42:36;;;;;;;1.00;0.60;;;4.60;68.70;;;;;;4975999;28;20419;-79
2020/12/27 05:45:16;;;;;;;1.20;0.80;;;4.70;68.70;;;;;;5001087;28;20442;-81
2020/12/27 05:47:44;;;;;;;1.50;0.60;;;4.70;68.50;;;;;;4981702;28;20192;-82
2020/12/27 05:50:14;;;;;;;0.90;0.57;;;4.70;68.40;;;;;;4981782;28;20423;-81
2020/12/27 05:52:48;;;;;;;1.00;0.60;;;4.70;68.30;;;;;;4981217;28;20646;-81
2020/12/27 05:55:21;;;;;;;1.40;0.73;;;4.80;68.40;;;;;;4964981;28;20410;-82
2020/12/27 05:57:52;;;;;;;1.00;0.50;;;4.80;68.50;;;;;;4982011;28;20492;-81
2020/12/27 06:00:23;;;;;;;1.60;0.70;;;4.80;68.60;;;;;;4981655;28;20446;-80
2020/12/27 06:02:57;;;;;;;0.90;0.57;;;4.80;68.60;;;;;;4981065;28;20434;-80
2020/12/27 06:05:58;;;;;;;1.67;0.63;;;4.80;68.70;;;;;;4980307;28;20417;-81
2020/12/27 06:08:30;;;;;;;1.10;0.50;;;4.80;68.70;;;;;;4982756;28;20421;-80
2020/12/27 06:11:37;;;;;;;0.80;0.40;;;4.80;68.80;;;;;;4967703;28;20414;-81
2020/12/27 06:14:15;;;;;;;1.47;0.80;;;4.80;68.60;;;;;;4981716;28;20419;-81
2020/12/27 06:17:15;;;;;;;0.80;0.40;;;4.80;68.30;;;;;;5009264;28;20434;-79
2020/12/27 06:20:17;;;;;;;1.10;0.60;;;4.80;68.10;;;;;;5010677;28;20470;-80
2020/12/27 06:22:47;;;;;;;1.00;0.53;;;4.80;68.00;;;;;;5010186;28;20411;-78
2020/12/27 06:25:40;;;;;;;2.13;0.70;;;4.80;68.00;;;;;;5010038;28;20458;-78
2020/12/27 06:28:08;;;;;;;1.17;0.60;;;4.80;68.00;;;;;;4995943;28;20545;-80
2020/12/27 06:30:36;;;;;;;1.53;0.60;;;4.80;67.90;;;;;;4981004;28;20414;-80
2020/12/27 06:33:30;;;;;;;0.90;0.50;;;4.80;67.50;;;;;;5009280;28;20446;-77
2020/12/27 06:35:59;;;;;;;1.00;0.50;;;4.80;67.60;;;;;;4994108;28;20450;-78
2020/12/27 06:38:25;;;;;;;1.10;0.60;;;4.80;67.70;;;;;;4994847;28;20490;-78
2020/12/27 06:41:10;;;;;;;0.90;0.50;;;4.80;67.50;;;;;;4993818;28;20465;-81
2020/12/27 06:44:38;;;;;;;1.20;0.60;;;4.80;67.40;;;;;;5009811;28;20403;-79
2020/12/27 06:47:04;;;;;;;0.90;0.50;;;4.80;67.50;;;;;;4987844;28;20458;-82
2020/12/27 06:49:43;;;;;;;1.93;0.70;;;4.80;67.50;;;;;;4989750;28;20415;-79
2020/12/27 06:52:24;;;;;;;2.83;0.70;;;4.80;67.50;;;;;;4992643;28;20403;-79
2020/12/27 06:55:09;;;;;;;0.90;0.50;;;4.80;67.50;;;;;;5008244;28;20413;-81
2020/12/27 06:57:54;;;;;;;1.77;0.60;;;4.90;67.10;;;;;;4987065;28;20491;-81
2020/12/27 07:00:34;;;;;;;0.90;0.50;;;4.90;67.30;;;;;;4985369;28;20458;-81
2020/12/27 07:03:25;;;;;;;0.80;0.40;;;4.80;67.40;;;;;;4986428;28;20430;-81
2020/12/27 07:05:51;;;;;;;0.80;0.40;;;4.90;67.40;;;;;;5004439;28;20434;-79
2020/12/27 07:08:37;;;;;;;0.80;0.50;;;4.90;67.30;;;;;;5003784;28;20168;-80
2020/12/27 07:11:06;;;;;;;0.90;0.60;;;4.90;67.40;;;;;;4984758;28;20569;-82
2020/12/27 07:13:45;;;;;;;0.90;0.50;;;4.90;67.50;;;;;;5002984;28;20419;-79
2020/12/27 07:16:16;;;;;;;0.90;0.50;;;4.90;67.30;;;;;;4986579;28;20506;-81
2020/12/27 07:18:45;;;;;;;0.90;0.50;;;4.90;67.40;;;;;;4988850;28;20486;-80
2020/12/27 07:21:13;;;;;;;0.90;0.53;;;4.90;67.50;;;;;;5003038;28;20455;-80
2020/12/27 07:23:47;;;;;;;1.20;0.50;;;4.90;67.60;;;;;;5006039;28;20411;-81
2020/12/27 07:26:13;;;;;;;1.00;0.50;;;4.90;67.70;;;;;;5009664;28;20421;-80
2020/12/27 07:28:39;;;;;;;1.20;0.63;;;4.90;67.70;;;;;;4972111;28;20571;-80
2020/12/27 07:31:06;;;;;;;0.90;0.50;;;4.90;67.60;;;;;;5002141;28;20450;-79
2020/12/27 07:33:34;;;;;;;1.10;0.60;;;4.90;67.50;;;;;;4988025;28;20461;-80
2020/12/27 07:36:05;;;;;;;1.13;0.50;;;4.90;67.70;;;;;;4973439;28;20514;-80
2020/12/27 07:38:40;;;;;;;1.60;0.50;;;4.90;67.70;;;;;;4987049;28;20439;-80
2020/12/27 07:41:09;;;;;;;1.33;0.53;;;4.90;67.80;;;;;;5007384;28;20508;-81
2020/12/27 07:43:38;;;;;;;1.27;0.87;;;4.90;67.90;;;;;;5005809;28;20403;-78
2020/12/27 07:46:07;;;;;;;0.90;0.60;;;4.90;68.00;;;;;;4988375;28;20411;-80
2020/12/27 07:48:39;;;;;;;1.20;0.53;;;4.90;68.40;;;;;;5006330;28;20415;-79
2020/12/27 07:51:24;;;;;;;1.03;0.50;;;4.80;68.40;;;;;;5007417;28;20407;-82
2020/12/27 07:53:52;;;;;;;1.70;0.60;;;4.90;68.90;;;;;;4970091;28;20430;-80
2020/12/27 07:56:25;;;;;;;0.90;0.50;;;4.80;68.90;;;;;;5006402;28;20423;-79
2020/12/27 07:59:01;;;;;;;1.10;0.57;;;4.80;69.40;;;;;;5005715;28;20450;-79
2020/12/27 08:01:26;;;;;;;1.10;0.63;;;4.80;69.50;;;;;;4986908;28;20458;-78
2020/12/27 08:03:57;;;;;;;1.10;0.57;;;4.80;69.60;;;;;;5005145;28;20849;-79
2020/12/27 08:06:24;;;;;;;2.67;0.70;;;4.80;69.70;;;;;;5004018;28;20192;-81
2020/12/27 08:09:08;;;;;;;1.10;0.53;;;4.80;69.90;;;;;;4989060;28;20402;-79
2020/12/27 08:11:36;;;;;;;1.77;0.80;;;4.80;69.90;;;;;;5003463;28;20402;-79
2020/12/27 08:14:07;;;;;;;1.10;0.60;;;4.90;70.10;;;;;;5004974;28;20484;-81
2020/12/27 08:16:39;;;;;;;0.93;0.50;;;4.90;70.20;;;;;;5004382;28;20427;-80
2020/12/27 08:19:08;;;;;;;1.50;0.80;;;4.90;70.40;;;;;;5002653;28;20414;-81
2020/12/27 08:21:35;;;;;;;1.10;0.70;;;4.90;70.30;;;;;;5005193;28;20423;-82
2020/12/27 08:24:05;;;;;;;1.10;0.67;;;4.90;70.30;;;;;;5007971;28;20413;-80
2020/12/27 08:26:33;;;;;;;1.33;0.80;;;5.00;70.20;;;;;;5007197;28;20446;-81
2020/12/27 08:29:20;;;;;;;1.57;0.70;;;5.00;70.20;;;;;;4987391;28;20403;-82
2020/12/27 08:31:48;;;;;;;0.90;0.50;;;5.00;70.20;;;;;;5007309;28;20423;-79
2020/12/27 08:34:15;;;;;;;1.30;0.60;;;5.00;69.90;;;;;;5009610;28;20398;-80
